Twin Oaks, Oklahoma
Current Conditions -  °F | °C
As of 10:55 PM on Monday 20 Oct 2014 (Local Time) from KSLG Reporting Station
Overcast Overcast  
Wind Chill: 52°   Ceiling: 200
Heat Index: 52°   Visibility: 0mi
Dew Point: 46°   Wind: 0mph
Humidity: 82%   Direction: NA
Pressure: 30.1"   Gusts: NA
Location:  36.21°N, 94.85°W
Report Text: KSLG 210355Z AUTO 00000KT M1/4SM OVC002 11/08 A3010 RMK AO1
Loading
Personal Weather Stations






























Interactive Weather Map
Tropical Storm Tracking
New forecast layout! Learn more

10-Day Weather Forecast

Advertisements
Track Severe Weather on mobile